sensor_id;sensor_type;location;lat;lon;timestamp;temperature;humidity
80676;SHT30;70041;46.088;18.268;2023-08-21T00:02:17;24.44;72.31
80676;SHT30;70041;46.088;18.268;2023-08-21T00:04:42;24.37;72.36
80676;SHT30;70041;46.088;18.268;2023-08-21T00:07:09;24.41;72.16
80676;SHT30;70041;46.088;18.268;2023-08-21T00:09:36;24.39;72.20
80676;SHT30;70041;46.088;18.268;2023-08-21T00:12:02;24.36;72.25
80676;SHT30;70041;46.088;18.268;2023-08-21T00:14:27;24.43;71.95
80676;SHT30;70041;46.088;18.268;2023-08-21T00:16:53;24.39;72.22
80676;SHT30;70041;46.088;18.268;2023-08-21T00:19:18;24.30;72.21
80676;SHT30;70041;46.088;18.268;2023-08-21T00:21:43;24.27;72.41
80676;SHT30;70041;46.088;18.268;2023-08-21T00:24:09;24.22;72.38
80676;SHT30;70041;46.088;18.268;2023-08-21T00:26:34;24.17;72.95
80676;SHT30;70041;46.088;18.268;2023-08-21T00:29:00;24.15;73.19
80676;SHT30;70041;46.088;18.268;2023-08-21T00:31:25;24.15;72.95
80676;SHT30;70041;46.088;18.268;2023-08-21T00:33:50;24.20;72.65
80676;SHT30;70041;46.088;18.268;2023-08-21T00:36:16;24.25;71.99
80676;SHT30;70041;46.088;18.268;2023-08-21T00:38:41;24.29;71.80
80676;SHT30;70041;46.088;18.268;2023-08-21T00:41:07;24.37;71.36
80676;SHT30;70041;46.088;18.268;2023-08-21T00:43:32;24.39;71.11
80676;SHT30;70041;46.088;18.268;2023-08-21T00:45:57;24.39;71.21
80676;SHT30;70041;46.088;18.268;2023-08-21T00:48:24;24.37;70.94
80676;SHT30;70041;46.088;18.268;2023-08-21T00:50:49;24.37;71.29
80676;SHT30;70041;46.088;18.268;2023-08-21T00:53:15;24.36;70.97
80676;SHT30;70041;46.088;18.268;2023-08-21T00:55:41;24.40;70.98
80676;SHT30;70041;46.088;18.268;2023-08-21T00:58:11;24.39;71.24
80676;SHT30;70041;46.088;18.268;2023-08-21T01:00:38;24.37;71.18
80676;SHT30;70041;46.088;18.268;2023-08-21T01:03:03;24.41;71.08
80676;SHT30;70041;46.088;18.268;2023-08-21T01:05:29;24.41;70.82
80676;SHT30;70041;46.088;18.268;2023-08-21T01:08:02;24.37;71.20
80676;SHT30;70041;46.088;18.268;2023-08-21T01:13:11;24.33;71.24
80676;SHT30;70041;46.088;18.268;2023-08-21T01:15:40;24.27;71.25
80676;SHT30;70041;46.088;18.268;2023-08-21T01:18:08;24.29;71.29
80676;SHT30;70041;46.088;18.268;2023-08-21T01:20:34;24.26;71.46
80676;SHT30;70041;46.088;18.268;2023-08-21T01:23:04;24.20;71.67
80676;SHT30;70041;46.088;18.268;2023-08-21T01:25:31;24.20;71.63
80676;SHT30;70041;46.088;18.268;2023-08-21T01:27:56;24.13;71.89
80676;SHT30;70041;46.088;18.268;2023-08-21T01:30:22;24.12;71.96
80676;SHT30;70041;46.088;18.268;2023-08-21T01:35:20;23.99;72.38
80676;SHT30;70041;46.088;18.268;2023-08-21T01:37:45;24.09;72.17
80676;SHT30;70041;46.088;18.268;2023-08-21T01:40:11;24.08;71.98
80676;SHT30;70041;46.088;18.268;2023-08-21T01:42:36;24.06;72.02
80676;SHT30;70041;46.088;18.268;2023-08-21T01:45:02;24.06;72.03
80676;SHT30;70041;46.088;18.268;2023-08-21T01:47:27;24.05;72.10
80676;SHT30;70041;46.088;18.268;2023-08-21T01:49:53;24.09;71.75
80676;SHT30;70041;46.088;18.268;2023-08-21T01:52:19;24.12;71.71
80676;SHT30;70041;46.088;18.268;2023-08-21T01:54:44;24.12;71.87
80676;SHT30;70041;46.088;18.268;2023-08-21T01:57:10;24.08;71.84
80676;SHT30;70041;46.088;18.268;2023-08-21T01:59:35;24.15;71.59
80676;SHT30;70041;46.088;18.268;2023-08-21T02:02:01;24.13;71.56
80676;SHT30;70041;46.088;18.268;2023-08-21T02:04:26;24.15;71.59
80676;SHT30;70041;46.088;18.268;2023-08-21T02:06:52;24.17;71.51
80676;SHT30;70041;46.088;18.268;2023-08-21T02:09:17;24.17;71.35
80676;SHT30;70041;46.088;18.268;2023-08-21T02:11:42;24.16;71.22
80676;SHT30;70041;46.088;18.268;2023-08-21T02:14:08;24.19;71.27
80676;SHT30;70041;46.088;18.268;2023-08-21T02:16:33;24.15;71.34
80676;SHT30;70041;46.088;18.268;2023-08-21T02:18:59;24.10;71.50
80676;SHT30;70041;46.088;18.268;2023-08-21T02:21:24;24.20;71.32
80676;SHT30;70041;46.088;18.268;2023-08-21T02:23:50;24.22;71.10
80676;SHT30;70041;46.088;18.268;2023-08-21T02:26:15;24.20;71.12
80676;SHT30;70041;46.088;18.268;2023-08-21T02:28:41;24.12;71.34
80676;SHT30;70041;46.088;18.268;2023-08-21T02:31:11;24.10;71.40
80676;SHT30;70041;46.088;18.268;2023-08-21T02:33:37;24.12;71.29
80676;SHT30;70041;46.088;18.268;2023-08-21T02:36:02;24.08;71.53
80676;SHT30;70041;46.088;18.268;2023-08-21T02:38:28;24.13;71.49
80676;SHT30;70041;46.088;18.268;2023-08-21T02:40:54;24.09;71.61
80676;SHT30;70041;46.088;18.268;2023-08-21T02:43:19;24.09;71.81
80676;SHT30;70041;46.088;18.268;2023-08-21T02:45:45;24.01;71.96
80676;SHT30;70041;46.088;18.268;2023-08-21T02:48:11;24.05;71.89
80676;SHT30;70041;46.088;18.268;2023-08-21T02:50:36;24.08;71.89
80676;SHT30;70041;46.088;18.268;2023-08-21T02:53:02;23.96;72.19
80676;SHT30;70041;46.088;18.268;2023-08-21T02:55:28;23.95;72.09
80676;SHT30;70041;46.088;18.268;2023-08-21T02:57:53;23.96;72.18
80676;SHT30;70041;46.088;18.268;2023-08-21T03:00:18;23.92;72.25
80676;SHT30;70041;46.088;18.268;2023-08-21T03:02:44;23.89;72.52
80676;SHT30;70041;46.088;18.268;2023-08-21T03:05:10;23.89;72.67
80676;SHT30;70041;46.088;18.268;2023-08-21T03:07:36;23.74;73.04
80676;SHT30;70041;46.088;18.268;2023-08-21T03:10:01;23.69;73.28
80676;SHT30;70041;46.088;18.268;2023-08-21T03:12:28;23.66;73.61
80676;SHT30;70041;46.088;18.268;2023-08-21T03:14:53;23.66;73.45
80676;SHT30;70041;46.088;18.268;2023-08-21T03:17:18;23.68;73.32
80676;SHT30;70041;46.088;18.268;2023-08-21T03:19:44;23.68;73.31
80676;SHT30;70041;46.088;18.268;2023-08-21T03:22:09;23.65;73.61
80676;SHT30;70041;46.088;18.268;2023-08-21T03:24:35;23.68;73.37
80676;SHT30;70041;46.088;18.268;2023-08-21T03:27:01;23.68;73.78
80676;SHT30;70041;46.088;18.268;2023-08-21T03:29:26;23.64;73.48
80676;SHT30;70041;46.088;18.268;2023-08-21T03:31:53;23.62;73.61
80676;SHT30;70041;46.088;18.268;2023-08-21T03:34:19;23.59;73.65
80676;SHT30;70041;46.088;18.268;2023-08-21T03:36:45;23.64;73.55
80676;SHT30;70041;46.088;18.268;2023-08-21T03:39:10;23.62;73.82
80676;SHT30;70041;46.088;18.268;2023-08-21T03:41:36;23.59;73.88
80676;SHT30;70041;46.088;18.268;2023-08-21T03:44:01;23.51;74.64
80676;SHT30;70041;46.088;18.268;2023-08-21T03:46:27;23.45;74.57
80676;SHT30;70041;46.088;18.268;2023-08-21T03:48:52;23.34;74.95
80676;SHT30;70041;46.088;18.268;2023-08-21T03:51:18;23.33;74.97
80676;SHT30;70041;46.088;18.268;2023-08-21T03:53:43;23.35;74.68
80676;SHT30;70041;46.088;18.268;2023-08-21T03:56:09;23.34;74.63
80676;SHT30;70041;46.088;18.268;2023-08-21T03:58:34;23.45;74.09
80676;SHT30;70041;46.088;18.268;2023-08-21T04:01:00;23.55;73.65
80676;SHT30;70041;46.088;18.268;2023-08-21T04:03:25;23.66;73.45
80676;SHT30;70041;46.088;18.268;2023-08-21T04:05:53;23.72;73.35
80676;SHT30;70041;46.088;18.268;2023-08-21T04:08:18;23.71;73.33
80676;SHT30;70041;46.088;18.268;2023-08-21T04:10:44;23.66;73.50
80676;SHT30;70041;46.088;18.268;2023-08-21T04:13:09;23.66;73.56
80676;SHT30;70041;46.088;18.268;2023-08-21T04:15:35;23.62;73.52
80676;SHT30;70041;46.088;18.268;2023-08-21T04:18:00;23.64;73.28
80676;SHT30;70041;46.088;18.268;2023-08-21T04:20:26;23.61;73.62
80676;SHT30;70041;46.088;18.268;2023-08-21T04:22:51;23.48;75.27
80676;SHT30;70041;46.088;18.268;2023-08-21T04:25:16;23.40;75.78
80676;SHT30;70041;46.088;18.268;2023-08-21T04:27:42;23.24;75.99
80676;SHT30;70041;46.088;18.268;2023-08-21T04:30:09;23.06;76.77
80676;SHT30;70041;46.088;18.268;2023-08-21T04:32:35;22.87;77.92
80676;SHT30;70041;46.088;18.268;2023-08-21T04:35:00;22.76;77.86
80676;SHT30;70041;46.088;18.268;2023-08-21T04:37:26;22.74;78.09
80676;SHT30;70041;46.088;18.268;2023-08-21T04:39:54;22.67;78.45
80676;SHT30;70041;46.088;18.268;2023-08-21T04:42:21;22.64;79.30
80676;SHT30;70041;46.088;18.268;2023-08-21T04:44:47;22.62;79.57
80676;SHT30;70041;46.088;18.268;2023-08-21T04:47:26;22.60;79.54
80676;SHT30;70041;46.088;18.268;2023-08-21T04:49:52;22.66;79.10
80676;SHT30;70041;46.088;18.268;2023-08-21T04:52:19;22.89;76.89
80676;SHT30;70041;46.088;18.268;2023-08-21T04:54:45;23.10;75.68
80676;SHT30;70041;46.088;18.268;2023-08-21T04:57:11;23.24;75.32
80676;SHT30;70041;46.088;18.268;2023-08-21T04:59:36;23.31;75.00
80676;SHT30;70041;46.088;18.268;2023-08-21T05:02:02;23.44;74.48
80676;SHT30;70041;46.088;18.268;2023-08-21T05:04:28;23.50;74.60
80676;SHT30;70041;46.088;18.268;2023-08-21T05:06:53;23.65;74.05
80676;SHT30;70041;46.088;18.268;2023-08-21T05:09:19;23.66;74.12
80676;SHT30;70041;46.088;18.268;2023-08-21T05:11:44;23.71;74.46
80676;SHT30;70041;46.088;18.268;2023-08-21T05:14:10;23.76;74.45
80676;SHT30;70041;46.088;18.268;2023-08-21T05:16:35;23.84;73.99
80676;SHT30;70041;46.088;18.268;2023-08-21T05:19:00;23.88;75.07
80676;SHT30;70041;46.088;18.268;2023-08-21T05:21:26;23.89;74.37
80676;SHT30;70041;46.088;18.268;2023-08-21T05:23:52;23.94;76.28
80676;SHT30;70041;46.088;18.268;2023-08-21T05:26:17;23.96;76.35
80676;SHT30;70041;46.088;18.268;2023-08-21T05:28:42;23.96;76.62
80676;SHT30;70041;46.088;18.268;2023-08-21T05:31:08;24.01;75.48
80676;SHT30;70041;46.088;18.268;2023-08-21T05:33:33;24.08;74.95
80676;SHT30;70041;46.088;18.268;2023-08-21T05:35:58;24.15;74.65
80676;SHT30;70041;46.088;18.268;2023-08-21T05:38:24;24.23;74.18
80676;SHT30;70041;46.088;18.268;2023-08-21T05:40:49;24.36;74.74
80676;SHT30;70041;46.088;18.268;2023-08-21T05:43:16;24.47;73.65
80676;SHT30;70041;46.088;18.268;2023-08-21T05:45:42;24.57;73.10
80676;SHT30;70041;46.088;18.268;2023-08-21T05:48:07;24.64;73.58
80676;SHT30;70041;46.088;18.268;2023-08-21T05:50:33;24.67;75.48
80676;SHT30;70041;46.088;18.268;2023-08-21T05:52:58;24.70;77.39
80676;SHT30;70041;46.088;18.268;2023-08-21T05:55:26;24.67;76.41
80676;SHT30;70041;46.088;18.268;2023-08-21T05:57:52;24.70;76.21
80676;SHT30;70041;46.088;18.268;2023-08-21T06:00:17;24.73;76.18
80676;SHT30;70041;46.088;18.268;2023-08-21T06:02:43;24.74;76.39
80676;SHT30;70041;46.088;18.268;2023-08-21T06:05:08;24.71;76.68
80676;SHT30;70041;46.088;18.268;2023-08-21T06:07:34;24.70;77.66
80676;SHT30;70041;46.088;18.268;2023-08-21T06:09:59;24.74;77.16
80676;SHT30;70041;46.088;18.268;2023-08-21T06:12:25;24.80;76.74
80676;SHT30;70041;46.088;18.268;2023-08-21T06:14:50;24.86;77.29
80676;SHT30;70041;46.088;18.268;2023-08-21T06:17:15;24.90;77.25
80676;SHT30;70041;46.088;18.268;2023-08-21T06:19:41;25.01;76.00
80676;SHT30;70041;46.088;18.268;2023-08-21T06:22:07;25.07;75.60
80676;SHT30;70041;46.088;18.268;2023-08-21T06:24:32;25.14;74.84
80676;SHT30;70041;46.088;18.268;2023-08-21T06:26:58;25.28;73.55
80676;SHT30;70041;46.088;18.268;2023-08-21T06:29:24;25.38;73.96
80676;SHT30;70041;46.088;18.268;2023-08-21T06:31:49;25.41;73.79
80676;SHT30;70041;46.088;18.268;2023-08-21T06:34:15;25.45;74.09
80676;SHT30;70041;46.088;18.268;2023-08-21T06:36:40;25.53;73.88
80676;SHT30;70041;46.088;18.268;2023-08-21T06:39:06;25.69;74.77
80676;SHT30;70041;46.088;18.268;2023-08-21T06:41:31;25.83;72.53
80676;SHT30;70041;46.088;18.268;2023-08-21T06:43:57;25.89;72.10
80676;SHT30;70041;46.088;18.268;2023-08-21T06:46:23;26.07;70.30
80676;SHT30;70041;46.088;18.268;2023-08-21T06:48:48;26.20;72.08
80676;SHT30;70041;46.088;18.268;2023-08-21T06:51:15;26.24;71.64
80676;SHT30;70041;46.088;18.268;2023-08-21T06:53:41;26.30;71.15
80676;SHT30;70041;46.088;18.268;2023-08-21T06:56:06;26.39;71.16
80676;SHT30;70041;46.088;18.268;2023-08-21T06:58:32;26.51;69.31
80676;SHT30;70041;46.088;18.268;2023-08-21T07:00:59;26.78;67.96
80676;SHT30;70041;46.088;18.268;2023-08-21T07:03:25;26.95;67.57
80676;SHT30;70041;46.088;18.268;2023-08-21T07:05:57;27.03;68.55
80676;SHT30;70041;46.088;18.268;2023-08-21T07:08:24;27.02;67.97
80676;SHT30;70041;46.088;18.268;2023-08-21T07:10:49;27.16;67.61
80676;SHT30;70041;46.088;18.268;2023-08-21T07:13:15;27.16;68.87
80676;SHT30;70041;46.088;18.268;2023-08-21T07:15:40;27.29;65.90
80676;SHT30;70041;46.088;18.268;2023-08-21T07:18:05;27.38;65.35
80676;SHT30;70041;46.088;18.268;2023-08-21T07:20:31;27.70;62.54
80676;SHT30;70041;46.088;18.268;2023-08-21T07:22:57;28.03;62.42
80676;SHT30;70041;46.088;18.268;2023-08-21T07:25:23;28.18;59.41
80676;SHT30;70041;46.088;18.268;2023-08-21T07:27:50;28.31;59.31
80676;SHT30;70041;46.088;18.268;2023-08-21T07:30:16;28.29;60.39
80676;SHT30;70041;46.088;18.268;2023-08-21T07:32:42;28.51;63.92
80676;SHT30;70041;46.088;18.268;2023-08-21T07:35:08;28.47;64.90
80676;SHT30;70041;46.088;18.268;2023-08-21T07:37:33;28.52;62.70
80676;SHT30;70041;46.088;18.268;2023-08-21T07:39:59;28.55;63.59
80676;SHT30;70041;46.088;18.268;2023-08-21T07:42:24;28.68;65.03
80676;SHT30;70041;46.088;18.268;2023-08-21T07:44:49;28.74;62.07
80676;SHT30;70041;46.088;18.268;2023-08-21T07:47:15;28.79;63.60
80676;SHT30;70041;46.088;18.268;2023-08-21T07:49:40;28.88;61.90
80676;SHT30;70041;46.088;18.268;2023-08-21T07:52:06;28.99;62.50
80676;SHT30;70041;46.088;18.268;2023-08-21T07:54:32;28.96;62.43
80676;SHT30;70041;46.088;18.268;2023-08-21T07:56:57;28.96;61.03
80676;SHT30;70041;46.088;18.268;2023-08-21T07:59:22;29.10;62.92
80676;SHT30;70041;46.088;18.268;2023-08-21T08:01:48;29.05;62.89
80676;SHT30;70041;46.088;18.268;2023-08-21T08:04:13;29.03;61.82
80676;SHT30;70041;46.088;18.268;2023-08-21T08:06:39;29.05;62.38
80676;SHT30;70041;46.088;18.268;2023-08-21T08:09:04;29.15;59.22
80676;SHT30;70041;46.088;18.268;2023-08-21T08:11:30;29.29;61.41
80676;SHT30;70041;46.088;18.268;2023-08-21T08:13:56;29.31;60.53
80676;SHT30;70041;46.088;18.268;2023-08-21T08:16:21;29.40;59.14
80676;SHT30;70041;46.088;18.268;2023-08-21T08:18:47;29.50;59.41
80676;SHT30;70041;46.088;18.268;2023-08-21T08:21:12;29.51;59.88
80676;SHT30;70041;46.088;18.268;2023-08-21T08:23:38;29.50;59.33
80676;SHT30;70041;46.088;18.268;2023-08-21T08:26:03;29.58;59.79
80676;SHT30;70041;46.088;18.268;2023-08-21T08:28:28;29.58;59.46
80676;SHT30;70041;46.088;18.268;2023-08-21T08:30:54;29.64;58.27
80676;SHT30;70041;46.088;18.268;2023-08-21T08:33:20;29.64;59.09
80676;SHT30;70041;46.088;18.268;2023-08-21T08:35:45;29.68;58.76
80676;SHT30;70041;46.088;18.268;2023-08-21T08:38:11;29.76;59.16
80676;SHT30;70041;46.088;18.268;2023-08-21T08:40:43;29.92;56.28
80676;SHT30;70041;46.088;18.268;2023-08-21T08:43:11;29.92;57.29
80676;SHT30;70041;46.088;18.268;2023-08-21T08:45:37;30.02;57.77
80676;SHT30;70041;46.088;18.268;2023-08-21T08:48:04;29.94;58.94
80676;SHT30;70041;46.088;18.268;2023-08-21T08:50:31;29.97;59.28
80676;SHT30;70041;46.088;18.268;2023-08-21T08:52:58;29.94;53.62
80676;SHT30;70041;46.088;18.268;2023-08-21T08:55:24;29.96;56.04
80676;SHT30;70041;46.088;18.268;2023-08-21T08:57:50;30.00;57.49
80676;SHT30;70041;46.088;18.268;2023-08-21T09:00:16;30.08;56.16
80676;SHT30;70041;46.088;18.268;2023-08-21T09:02:41;30.22;56.64
80676;SHT30;70041;46.088;18.268;2023-08-21T09:05:07;30.25;55.20
80676;SHT30;70041;46.088;18.268;2023-08-21T09:07:34;30.33;52.38
80676;SHT30;70041;46.088;18.268;2023-08-21T09:10:00;30.31;53.68
80676;SHT30;70041;46.088;18.268;2023-08-21T09:12:25;30.29;54.05
80676;SHT30;70041;46.088;18.268;2023-08-21T09:14:51;30.39;51.97
80676;SHT30;70041;46.088;18.268;2023-08-21T09:17:17;30.52;49.67
80676;SHT30;70041;46.088;18.268;2023-08-21T09:19:43;30.58;49.03
80676;SHT30;70041;46.088;18.268;2023-08-21T09:24:34;30.45;48.49
80676;SHT30;70041;46.088;18.268;2023-08-21T09:27:00;30.62;48.58
80676;SHT30;70041;46.088;18.268;2023-08-21T09:29:27;30.66;49.64
80676;SHT30;70041;46.088;18.268;2023-08-21T09:31:56;30.72;49.43
80676;SHT30;70041;46.088;18.268;2023-08-21T09:34:21;30.80;48.52
80676;SHT30;70041;46.088;18.268;2023-08-21T09:36:54;30.80;48.28
80676;SHT30;70041;46.088;18.268;2023-08-21T09:39:20;30.83;50.01
80676;SHT30;70041;46.088;18.268;2023-08-21T09:41:55;30.93;48.75
80676;SHT30;70041;46.088;18.268;2023-08-21T09:44:21;30.99;48.06
80676;SHT30;70041;46.088;18.268;2023-08-21T09:46:48;31.13;47.11
80676;SHT30;70041;46.088;18.268;2023-08-21T09:49:15;31.24;46.68
80676;SHT30;70041;46.088;18.268;2023-08-21T09:51:42;31.41;52.48
80676;SHT30;70041;46.088;18.268;2023-08-21T09:54:11;31.54;47.62
80676;SHT30;70041;46.088;18.268;2023-08-21T09:56:37;31.65;46.99
80676;SHT30;70041;46.088;18.268;2023-08-21T09:59:03;31.81;46.52
80676;SHT30;70041;46.088;18.268;2023-08-21T10:01:30;31.85;45.97
80676;SHT30;70041;46.088;18.268;2023-08-21T10:04:01;31.82;46.33
80676;SHT30;70041;46.088;18.268;2023-08-21T10:06:28;31.75;50.84
80676;SHT30;70041;46.088;18.268;2023-08-21T10:08:56;31.72;48.96
80676;SHT30;70041;46.088;18.268;2023-08-21T10:11:42;31.82;47.74
80676;SHT30;70041;46.088;18.268;2023-08-21T10:14:09;31.92;45.33
80676;SHT30;70041;46.088;18.268;2023-08-21T10:16:35;31.96;45.59
80676;SHT30;70041;46.088;18.268;2023-08-21T10:19:04;32.15;49.12
80676;SHT30;70041;46.088;18.268;2023-08-21T10:21:37;32.28;49.38
80676;SHT30;70041;46.088;18.268;2023-08-21T10:24:02;32.31;48.12
80676;SHT30;70041;46.088;18.268;2023-08-21T10:26:28;32.42;45.71
80676;SHT30;70041;46.088;18.268;2023-08-21T10:29:01;32.48;45.38
80676;SHT30;70041;46.088;18.268;2023-08-21T10:33:54;32.57;45.35
80676;SHT30;70041;46.088;18.268;2023-08-21T10:39:21;32.96;44.30
80676;SHT30;70041;46.088;18.268;2023-08-21T10:49:56;33.41;43.52
80676;SHT30;70041;46.088;18.268;2023-08-21T10:52:34;33.40;43.47
80676;SHT30;70041;46.088;18.268;2023-08-21T10:55:01;33.24;42.97
80676;SHT30;70041;46.088;18.268;2023-08-21T10:57:31;33.91;42.50
80676;SHT30;70041;46.088;18.268;2023-08-21T10:59:58;34.16;41.59
80676;SHT30;70041;46.088;18.268;2023-08-21T11:02:26;34.22;45.37
80676;SHT30;70041;46.088;18.268;2023-08-21T11:04:52;34.06;42.47
80676;SHT30;70041;46.088;18.268;2023-08-21T11:07:18;33.78;44.56
80676;SHT30;70041;46.088;18.268;2023-08-21T11:09:44;34.02;42.59
80676;SHT30;70041;46.088;18.268;2023-08-21T11:12:15;34.26;41.93
80676;SHT30;70041;46.088;18.268;2023-08-21T11:14:41;34.61;43.12
80676;SHT30;70041;46.088;18.268;2023-08-21T11:17:07;34.96;41.42
80676;SHT30;70041;46.088;18.268;2023-08-21T11:19:34;34.80;40.32
80676;SHT30;70041;46.088;18.268;2023-08-21T11:22:01;34.42;41.16
80676;SHT30;70041;46.088;18.268;2023-08-21T11:24:44;34.08;42.57
80676;SHT30;70041;46.088;18.268;2023-08-21T11:27:12;33.79;43.47
80676;SHT30;70041;46.088;18.268;2023-08-21T11:29:45;33.78;44.09
80676;SHT30;70041;46.088;18.268;2023-08-21T11:32:18;33.64;43.25
80676;SHT30;70041;46.088;18.268;2023-08-21T11:34:49;33.69;42.67
80676;SHT30;70041;46.088;18.268;2023-08-21T11:37:20;33.76;41.73
80676;SHT30;70041;46.088;18.268;2023-08-21T11:42:15;33.85;41.41
80676;SHT30;70041;46.088;18.268;2023-08-21T11:44:49;33.85;41.34
80676;SHT30;70041;46.088;18.268;2023-08-21T11:47:17;33.62;42.15
80676;SHT30;70041;46.088;18.268;2023-08-21T11:49:44;33.65;42.68
80676;SHT30;70041;46.088;18.268;2023-08-21T11:52:13;33.37;43.96
80676;SHT30;70041;46.088;18.268;2023-08-21T11:54:40;33.48;43.96
80676;SHT30;70041;46.088;18.268;2023-08-21T11:57:14;33.64;42.24
80676;SHT30;70041;46.088;18.268;2023-08-21T11:59:40;33.62;42.78
80676;SHT30;70041;46.088;18.268;2023-08-21T12:02:29;33.64;41.81
80676;SHT30;70041;46.088;18.268;2023-08-21T12:05:03;33.47;41.70
80676;SHT30;70041;46.088;18.268;2023-08-21T12:07:28;33.45;42.73
80676;SHT30;70041;46.088;18.268;2023-08-21T12:09:54;33.64;42.28
80676;SHT30;70041;46.088;18.268;2023-08-21T12:12:19;34.09;42.62
80676;SHT30;70041;46.088;18.268;2023-08-21T12:14:45;34.52;44.73
80676;SHT30;70041;46.088;18.268;2023-08-21T12:17:11;34.49;42.89
80676;SHT30;70041;46.088;18.268;2023-08-21T12:19:37;34.37;41.34
80676;SHT30;70041;46.088;18.268;2023-08-21T12:22:02;34.22;41.84
80676;SHT30;70041;46.088;18.268;2023-08-21T12:24:28;34.32;42.84
80676;SHT30;70041;46.088;18.268;2023-08-21T12:26:53;34.16;41.22
80676;SHT30;70041;46.088;18.268;2023-08-21T12:29:19;34.02;43.09
80676;SHT30;70041;46.088;18.268;2023-08-21T12:31:44;33.99;43.04
80676;SHT30;70041;46.088;18.268;2023-08-21T12:34:10;33.91;43.07
80676;SHT30;70041;46.088;18.268;2023-08-21T12:36:36;33.94;42.02
80676;SHT30;70041;46.088;18.268;2023-08-21T12:39:05;34.27;41.48
80676;SHT30;70041;46.088;18.268;2023-08-21T12:41:32;34.60;41.16
80676;SHT30;70041;46.088;18.268;2023-08-21T12:44:01;34.67;41.11
80676;SHT30;70041;46.088;18.268;2023-08-21T12:46:28;34.68;39.93
80676;SHT30;70041;46.088;18.268;2023-08-21T12:48:55;34.74;39.41
80676;SHT30;70041;46.088;18.268;2023-08-21T12:51:20;34.79;40.52
80676;SHT30;70041;46.088;18.268;2023-08-21T12:53:46;34.76;38.87
80676;SHT30;70041;46.088;18.268;2023-08-21T12:56:11;34.64;37.90
80676;SHT30;70041;46.088;18.268;2023-08-21T12:58:36;35.18;38.68
80676;SHT30;70041;46.088;18.268;2023-08-21T13:01:02;36.06;37.12
80676;SHT30;70041;46.088;18.268;2023-08-21T13:03:29;37.34;35.04
80676;SHT30;70041;46.088;18.268;2023-08-21T13:05:54;38.08;33.42
80676;SHT30;70041;46.088;18.268;2023-08-21T13:08:20;38.66;32.16
80676;SHT30;70041;46.088;18.268;2023-08-21T13:10:46;39.22;31.32
80676;SHT30;70041;46.088;18.268;2023-08-21T13:13:11;39.81;30.66
80676;SHT30;70041;46.088;18.268;2023-08-21T13:15:37;39.59;30.23
80676;SHT30;70041;46.088;18.268;2023-08-21T13:18:02;39.90;30.37
80676;SHT30;70041;46.088;18.268;2023-08-21T13:20:28;39.35;31.21
80676;SHT30;70041;46.088;18.268;2023-08-21T13:22:53;38.61;31.27
80676;SHT30;70041;46.088;18.268;2023-08-21T13:25:20;37.58;32.67
80676;SHT30;70041;46.088;18.268;2023-08-21T13:27:46;37.19;33.46
80676;SHT30;70041;46.088;18.268;2023-08-21T13:30:12;36.92;34.00
80676;SHT30;70041;46.088;18.268;2023-08-21T13:32:38;37.90;33.12
80676;SHT30;70041;46.088;18.268;2023-08-21T13:35:04;39.02;32.29
80676;SHT30;70041;46.088;18.268;2023-08-21T13:37:32;39.70;31.26
80676;SHT30;70041;46.088;18.268;2023-08-21T13:39:58;40.10;30.31
80676;SHT30;70041;46.088;18.268;2023-08-21T13:42:25;40.27;29.58
80676;SHT30;70041;46.088;18.268;2023-08-21T13:44:51;40.71;29.17
80676;SHT30;70041;46.088;18.268;2023-08-21T13:47:16;40.48;29.30
80676;SHT30;70041;46.088;18.268;2023-08-21T13:49:42;40.40;29.87
80676;SHT30;70041;46.088;18.268;2023-08-21T13:52:07;39.77;31.02
80676;SHT30;70041;46.088;18.268;2023-08-21T13:54:32;40.09;30.07
80676;SHT30;70041;46.088;18.268;2023-08-21T13:56:58;40.39;29.26
80676;SHT30;70041;46.088;18.268;2023-08-21T13:59:25;40.73;29.36
80676;SHT30;70041;46.088;18.268;2023-08-21T14:01:50;40.51;29.69
80676;SHT30;70041;46.088;18.268;2023-08-21T14:04:16;40.12;29.92
80676;SHT30;70041;46.088;18.268;2023-08-21T14:06:41;40.58;29.98
80676;SHT30;70041;46.088;18.268;2023-08-21T14:09:07;40.29;29.93
80676;SHT30;70041;46.088;18.268;2023-08-21T14:11:32;39.35;31.41
80676;SHT30;70041;46.088;18.268;2023-08-21T14:13:57;38.92;31.61
80676;SHT30;70041;46.088;18.268;2023-08-21T14:16:23;37.92;33.52
80676;SHT30;70041;46.088;18.268;2023-08-21T14:18:49;37.38;34.07
80676;SHT30;70041;46.088;18.268;2023-08-21T14:21:14;36.62;35.37
80676;SHT30;70041;46.088;18.268;2023-08-21T14:23:39;36.23;36.39
80676;SHT30;70041;46.088;18.268;2023-08-21T14:26:05;36.10;35.76
80676;SHT30;70041;46.088;18.268;2023-08-21T14:28:30;35.89;36.79
80676;SHT30;70041;46.088;18.268;2023-08-21T14:30:56;35.89;37.01
80676;SHT30;70041;46.088;18.268;2023-08-21T14:33:21;36.20;35.25
80676;SHT30;70041;46.088;18.268;2023-08-21T14:35:47;36.64;35.15
80676;SHT30;70041;46.088;18.268;2023-08-21T14:38:12;37.13;33.95
80676;SHT30;70041;46.088;18.268;2023-08-21T14:40:37;37.31;34.48
80676;SHT30;70041;46.088;18.268;2023-08-21T14:43:03;37.92;34.01
80676;SHT30;70041;46.088;18.268;2023-08-21T14:45:28;38.19;32.50
80676;SHT30;70041;46.088;18.268;2023-08-21T14:47:54;38.70;31.85
80676;SHT30;70041;46.088;18.268;2023-08-21T14:50:19;39.31;31.24
80676;SHT30;70041;46.088;18.268;2023-08-21T14:52:44;39.86;30.49
80676;SHT30;70041;46.088;18.268;2023-08-21T14:55:10;39.88;30.80
80676;SHT30;70041;46.088;18.268;2023-08-21T14:57:35;40.13;30.13
80676;SHT30;70041;46.088;18.268;2023-08-21T15:00:01;40.26;30.10
80676;SHT30;70041;46.088;18.268;2023-08-21T15:02:28;40.39;30.22
80676;SHT30;70041;46.088;18.268;2023-08-21T15:04:54;40.85;30.27
80676;SHT30;70041;46.088;18.268;2023-08-21T15:07:19;41.16;29.53
80676;SHT30;70041;46.088;18.268;2023-08-21T15:09:44;41.15;29.39
80676;SHT30;70041;46.088;18.268;2023-08-21T15:12:10;41.02;29.31
80676;SHT30;70041;46.088;18.268;2023-08-21T15:14:35;40.88;29.17
80676;SHT30;70041;46.088;18.268;2023-08-21T15:17:02;40.65;28.90
80676;SHT30;70041;46.088;18.268;2023-08-21T15:19:27;40.47;29.25
80676;SHT30;70041;46.088;18.268;2023-08-21T15:21:52;40.67;29.93
80676;SHT30;70041;46.088;18.268;2023-08-21T15:24:18;39.77;30.74
80676;SHT30;70041;46.088;18.268;2023-08-21T15:26:43;39.22;31.99
80676;SHT30;70041;46.088;18.268;2023-08-21T15:29:09;38.59;32.08
80676;SHT30;70041;46.088;18.268;2023-08-21T15:31:34;37.75;33.50
80676;SHT30;70041;46.088;18.268;2023-08-21T15:34:00;37.13;34.14